sensor_id;sensor_type;location;lat;lon;timestamp;P1;durP1;ratioP1;P2;durP2;ratioP2
49396;SDS011;35615;41.410;2.194;2023-05-14T00:02:02;10.45;;;4.88;;
49396;SDS011;35615;41.410;2.194;2023-05-14T00:04:29;9.63;;;4.55;;
49396;SDS011;35615;41.410;2.194;2023-05-14T00:06:57;4.57;;;3.95;;
49396;SDS011;35615;41.410;2.194;2023-05-14T00:09:24;6.78;;;4.57;;
49396;SDS011;35615;41.410;2.194;2023-05-14T00:11:51;7.55;;;4.90;;
49396;SDS011;35615;41.410;2.194;2023-05-14T00:14:18;5.88;;;4.35;;
49396;SDS011;35615;41.410;2.194;2023-05-14T00:16:48;8.93;;;4.82;;
49396;SDS011;35615;41.410;2.194;2023-05-14T00:19:15;6.78;;;4.60;;
49396;SDS011;35615;41.410;2.194;2023-05-14T00:21:43;8.05;;;4.78;;
49396;SDS011;35615;41.410;2.194;2023-05-14T00:24:10;8.18;;;5.22;;
49396;SDS011;35615;41.410;2.194;2023-05-14T00:26:37;5.85;;;4.38;;
49396;SDS011;35615;41.410;2.194;2023-05-14T00:29:04;5.28;;;4.18;;
49396;SDS011;35615;41.410;2.194;2023-05-14T00:31:31;6.65;;;4.35;;
49396;SDS011;35615;41.410;2.194;2023-05-14T00:33:59;9.85;;;4.05;;
49396;SDS011;35615;41.410;2.194;2023-05-14T00:36:26;7.15;;;4.80;;
49396;SDS011;35615;41.410;2.194;2023-05-14T00:38:53;7.85;;;4.30;;
49396;SDS011;35615;41.410;2.194;2023-05-14T00:41:21;7.25;;;4.45;;
49396;SDS011;35615;41.410;2.194;2023-05-14T00:43:49;6.45;;;3.88;;
49396;SDS011;35615;41.410;2.194;2023-05-14T00:46:16;9.73;;;4.63;;
49396;SDS011;35615;41.410;2.194;2023-05-14T00:48:43;9.38;;;4.00;;
49396;SDS011;35615;41.410;2.194;2023-05-14T00:51:10;9.63;;;4.38;;
49396;SDS011;35615;41.410;2.194;2023-05-14T00:53:38;5.75;;;3.80;;
49396;SDS011;35615;41.410;2.194;2023-05-14T00:56:06;7.85;;;4.55;;
49396;SDS011;35615;41.410;2.194;2023-05-14T00:58:34;14.75;;;4.90;;
49396;SDS011;35615;41.410;2.194;2023-05-14T01:01:01;6.45;;;4.15;;
49396;SDS011;35615;41.410;2.194;2023-05-14T01:03:29;8.52;;;4.25;;
49396;SDS011;35615;41.410;2.194;2023-05-14T01:11:19;5.10;;;3.35;;
49396;SDS011;35615;41.410;2.194;2023-05-14T01:16:45;5.30;;;3.20;;
49396;SDS011;35615;41.410;2.194;2023-05-14T01:19:27;6.95;;;3.50;;
49396;SDS011;35615;41.410;2.194;2023-05-14T01:21:55;6.03;;;3.60;;
49396;SDS011;35615;41.410;2.194;2023-05-14T01:24:27;5.93;;;3.42;;
49396;SDS011;35615;41.410;2.194;2023-05-14T01:27:00;5.32;;;3.17;;
49396;SDS011;35615;41.410;2.194;2023-05-14T01:29:37;6.22;;;3.75;;
49396;SDS011;35615;41.410;2.194;2023-05-14T01:32:09;5.43;;;3.30;;
49396;SDS011;35615;41.410;2.194;2023-05-14T01:34:37;4.85;;;3.40;;
49396;SDS011;35615;41.410;2.194;2023-05-14T01:37:06;7.43;;;3.70;;
49396;SDS011;35615;41.410;2.194;2023-05-14T01:39:42;6.65;;;3.58;;
49396;SDS011;35615;41.410;2.194;2023-05-14T01:42:11;8.50;;;3.90;;
49396;SDS011;35615;41.410;2.194;2023-05-14T01:44:41;6.70;;;3.45;;
49396;SDS011;35615;41.410;2.194;2023-05-14T01:47:09;5.43;;;3.78;;
49396;SDS011;35615;41.410;2.194;2023-05-14T01:49:37;6.88;;;3.65;;
49396;SDS011;35615;41.410;2.194;2023-05-14T01:52:05;4.70;;;3.33;;
49396;SDS011;35615;41.410;2.194;2023-05-14T01:54:34;8.27;;;4.78;;
49396;SDS011;35615;41.410;2.194;2023-05-14T01:59:35;5.85;;;4.47;;
49396;SDS011;35615;41.410;2.194;2023-05-14T02:02:05;6.78;;;4.68;;
49396;SDS011;35615;41.410;2.194;2023-05-14T02:04:33;6.88;;;4.57;;
49396;SDS011;35615;41.410;2.194;2023-05-14T02:07:01;8.50;;;4.97;;
49396;SDS011;35615;41.410;2.194;2023-05-14T02:09:31;10.52;;;5.05;;
49396;SDS011;35615;41.410;2.194;2023-05-14T02:12:00;7.43;;;4.68;;
49396;SDS011;35615;41.410;2.194;2023-05-14T02:14:31;11.88;;;5.85;;
49396;SDS011;35615;41.410;2.194;2023-05-14T02:17:04;8.52;;;5.97;;
49396;SDS011;35615;41.410;2.194;2023-05-14T02:22:12;11.48;;;6.25;;
49396;SDS011;35615;41.410;2.194;2023-05-14T02:24:40;10.23;;;6.28;;
49396;SDS011;35615;41.410;2.194;2023-05-14T02:27:07;11.88;;;6.55;;
49396;SDS011;35615;41.410;2.194;2023-05-14T02:29:38;11.35;;;6.90;;
49396;SDS011;35615;41.410;2.194;2023-05-14T02:32:06;8.75;;;6.10;;
49396;SDS011;35615;41.410;2.194;2023-05-14T02:34:33;14.85;;;6.53;;
49396;SDS011;35615;41.410;2.194;2023-05-14T02:37:04;10.00;;;6.45;;
49396;SDS011;35615;41.410;2.194;2023-05-14T02:39:32;9.60;;;6.90;;
49396;SDS011;35615;41.410;2.194;2023-05-14T02:41:59;10.85;;;6.85;;
49396;SDS011;35615;41.410;2.194;2023-05-14T02:44:26;9.98;;;6.93;;
49396;SDS011;35615;41.410;2.194;2023-05-14T02:46:53;12.63;;;7.60;;
49396;SDS011;35615;41.410;2.194;2023-05-14T02:49:21;11.70;;;6.63;;
49396;SDS011;35615;41.410;2.194;2023-05-14T02:51:48;12.02;;;8.00;;
49396;SDS011;35615;41.410;2.194;2023-05-14T02:54:15;9.50;;;6.93;;
49396;SDS011;35615;41.410;2.194;2023-05-14T02:56:42;9.27;;;6.13;;
49396;SDS011;35615;41.410;2.194;2023-05-14T02:59:09;9.88;;;6.93;;
49396;SDS011;35615;41.410;2.194;2023-05-14T03:01:37;12.93;;;7.47;;
49396;SDS011;35615;41.410;2.194;2023-05-14T03:04:05;9.95;;;7.35;;
49396;SDS011;35615;41.410;2.194;2023-05-14T03:06:34;11.27;;;7.15;;
49396;SDS011;35615;41.410;2.194;2023-05-14T03:09:02;10.43;;;7.22;;
49396;SDS011;35615;41.410;2.194;2023-05-14T03:11:29;13.02;;;6.97;;
49396;SDS011;35615;41.410;2.194;2023-05-14T03:13:56;11.77;;;7.15;;
49396;SDS011;35615;41.410;2.194;2023-05-14T03:16:23;11.35;;;7.32;;
49396;SDS011;35615;41.410;2.194;2023-05-14T03:18:51;13.43;;;7.30;;
49396;SDS011;35615;41.410;2.194;2023-05-14T03:21:18;10.48;;;7.35;;
49396;SDS011;35615;41.410;2.194;2023-05-14T03:23:47;11.65;;;7.82;;
49396;SDS011;35615;41.410;2.194;2023-05-14T03:26:17;9.90;;;7.60;;
49396;SDS011;35615;41.410;2.194;2023-05-14T03:28:47;11.98;;;7.55;;
49396;SDS011;35615;41.410;2.194;2023-05-14T03:31:14;11.18;;;7.53;;
49396;SDS011;35615;41.410;2.194;2023-05-14T03:33:41;13.18;;;7.65;;
49396;SDS011;35615;41.410;2.194;2023-05-14T03:36:11;12.68;;;7.55;;
49396;SDS011;35615;41.410;2.194;2023-05-14T03:38:38;10.55;;;7.03;;
49396;SDS011;35615;41.410;2.194;2023-05-14T03:41:06;13.93;;;7.93;;
49396;SDS011;35615;41.410;2.194;2023-05-14T03:43:33;11.93;;;7.45;;
49396;SDS011;35615;41.410;2.194;2023-05-14T03:46:00;13.27;;;7.82;;
49396;SDS011;35615;41.410;2.194;2023-05-14T03:48:27;11.05;;;7.57;;
49396;SDS011;35615;41.410;2.194;2023-05-14T03:50:55;10.43;;;7.63;;
49396;SDS011;35615;41.410;2.194;2023-05-14T03:53:22;10.65;;;7.85;;
49396;SDS011;35615;41.410;2.194;2023-05-14T03:55:49;10.18;;;7.15;;
49396;SDS011;35615;41.410;2.194;2023-05-14T03:58:16;11.52;;;7.13;;
49396;SDS011;35615;41.410;2.194;2023-05-14T04:00:50;10.77;;;7.40;;
49396;SDS011;35615;41.410;2.194;2023-05-14T04:03:17;11.88;;;8.00;;
49396;SDS011;35615;41.410;2.194;2023-05-14T04:05:45;10.07;;;7.53;;
49396;SDS011;35615;41.410;2.194;2023-05-14T04:08:12;8.88;;;6.40;;
49396;SDS011;35615;41.410;2.194;2023-05-14T04:10:41;11.10;;;7.50;;
49396;SDS011;35615;41.410;2.194;2023-05-14T04:13:08;10.98;;;7.13;;
49396;SDS011;35615;41.410;2.194;2023-05-14T04:15:38;12.38;;;6.97;;
49396;SDS011;35615;41.410;2.194;2023-05-14T04:18:08;11.23;;;7.00;;
49396;SDS011;35615;41.410;2.194;2023-05-14T04:20:35;9.43;;;6.90;;
49396;SDS011;35615;41.410;2.194;2023-05-14T04:23:02;9.13;;;7.10;;
49396;SDS011;35615;41.410;2.194;2023-05-14T04:25:30;12.07;;;6.45;;
49396;SDS011;35615;41.410;2.194;2023-05-14T04:27:57;13.05;;;7.38;;
49396;SDS011;35615;41.410;2.194;2023-05-14T04:30:24;9.55;;;7.25;;
49396;SDS011;35615;41.410;2.194;2023-05-14T04:32:52;14.10;;;7.35;;
49396;SDS011;35615;41.410;2.194;2023-05-14T04:35:21;14.27;;;7.20;;
49396;SDS011;35615;41.410;2.194;2023-05-14T04:37:50;13.55;;;7.38;;
49396;SDS011;35615;41.410;2.194;2023-05-14T04:40:17;11.45;;;6.55;;
49396;SDS011;35615;41.410;2.194;2023-05-14T04:42:45;16.00;;;7.75;;
49396;SDS011;35615;41.410;2.194;2023-05-14T04:45:12;12.52;;;6.93;;
49396;SDS011;35615;41.410;2.194;2023-05-14T04:47:40;9.20;;;6.82;;
49396;SDS011;35615;41.410;2.194;2023-05-14T04:50:07;10.77;;;7.05;;
49396;SDS011;35615;41.410;2.194;2023-05-14T04:52:35;10.48;;;7.13;;
49396;SDS011;35615;41.410;2.194;2023-05-14T04:55:04;12.20;;;7.22;;
49396;SDS011;35615;41.410;2.194;2023-05-14T04:57:34;10.07;;;6.50;;
49396;SDS011;35615;41.410;2.194;2023-05-14T05:00:02;11.90;;;7.25;;
49396;SDS011;35615;41.410;2.194;2023-05-14T05:02:31;8.57;;;7.05;;
49396;SDS011;35615;41.410;2.194;2023-05-14T05:05:00;13.80;;;7.20;;
49396;SDS011;35615;41.410;2.194;2023-05-14T05:07:28;9.95;;;6.88;;
49396;SDS011;35615;41.410;2.194;2023-05-14T05:09:55;9.00;;;6.68;;
49396;SDS011;35615;41.410;2.194;2023-05-14T05:12:22;11.05;;;6.68;;
49396;SDS011;35615;41.410;2.194;2023-05-14T05:14:52;9.10;;;6.70;;
49396;SDS011;35615;41.410;2.194;2023-05-14T05:17:19;11.27;;;6.40;;
49396;SDS011;35615;41.410;2.194;2023-05-14T05:19:47;13.70;;;6.72;;
49396;SDS011;35615;41.410;2.194;2023-05-14T05:22:14;8.98;;;6.65;;
49396;SDS011;35615;41.410;2.194;2023-05-14T05:24:41;10.57;;;6.00;;
49396;SDS011;35615;41.410;2.194;2023-05-14T05:27:08;8.68;;;6.07;;
49396;SDS011;35615;41.410;2.194;2023-05-14T05:29:35;9.82;;;6.38;;
49396;SDS011;35615;41.410;2.194;2023-05-14T05:32:03;10.15;;;6.07;;
49396;SDS011;35615;41.410;2.194;2023-05-14T05:34:30;9.82;;;6.43;;
49396;SDS011;35615;41.410;2.194;2023-05-14T05:36:58;11.30;;;6.07;;
49396;SDS011;35615;41.410;2.194;2023-05-14T05:39:27;11.57;;;6.72;;
49396;SDS011;35615;41.410;2.194;2023-05-14T05:42:00;8.25;;;5.90;;
49396;SDS011;35615;41.410;2.194;2023-05-14T05:44:28;6.57;;;4.95;;
49396;SDS011;35615;41.410;2.194;2023-05-14T05:46:55;7.43;;;4.82;;
49396;SDS011;35615;41.410;2.194;2023-05-14T05:49:23;6.45;;;4.47;;
49396;SDS011;35615;41.410;2.194;2023-05-14T05:51:50;3.42;;;2.50;;
49396;SDS011;35615;41.410;2.194;2023-05-14T05:54:17;5.15;;;2.60;;
49396;SDS011;35615;41.410;2.194;2023-05-14T05:56:44;3.38;;;2.35;;
49396;SDS011;35615;41.410;2.194;2023-05-14T05:59:12;6.22;;;1.98;;
49396;SDS011;35615;41.410;2.194;2023-05-14T06:01:39;4.88;;;1.60;;
49396;SDS011;35615;41.410;2.194;2023-05-14T06:04:07;3.15;;;2.00;;
49396;SDS011;35615;41.410;2.194;2023-05-14T06:06:34;3.83;;;1.88;;
49396;SDS011;35615;41.410;2.194;2023-05-14T06:09:01;2.92;;;1.50;;
49396;SDS011;35615;41.410;2.194;2023-05-14T06:11:28;2.47;;;1.63;;
49396;SDS011;35615;41.410;2.194;2023-05-14T06:13:55;4.97;;;2.15;;
49396;SDS011;35615;41.410;2.194;2023-05-14T06:16:23;4.13;;;2.15;;
49396;SDS011;35615;41.410;2.194;2023-05-14T06:18:50;1.70;;;1.60;;
49396;SDS011;35615;41.410;2.194;2023-05-14T06:21:18;7.72;;;1.90;;
49396;SDS011;35615;41.410;2.194;2023-05-14T06:23:45;2.45;;;1.55;;
49396;SDS011;35615;41.410;2.194;2023-05-14T06:26:12;3.97;;;1.65;;
49396;SDS011;35615;41.410;2.194;2023-05-14T06:28:40;3.50;;;1.75;;
49396;SDS011;35615;41.410;2.194;2023-05-14T06:31:07;6.15;;;2.45;;
49396;SDS011;35615;41.410;2.194;2023-05-14T06:33:34;3.08;;;1.98;;
49396;SDS011;35615;41.410;2.194;2023-05-14T06:36:04;4.03;;;1.80;;
49396;SDS011;35615;41.410;2.194;2023-05-14T06:38:33;2.78;;;2.20;;
49396;SDS011;35615;41.410;2.194;2023-05-14T06:41:00;2.00;;;1.60;;
49396;SDS011;35615;41.410;2.194;2023-05-14T06:43:28;2.10;;;1.75;;
49396;SDS011;35615;41.410;2.194;2023-05-14T06:45:58;2.67;;;2.05;;
49396;SDS011;35615;41.410;2.194;2023-05-14T06:48:28;3.38;;;2.05;;
49396;SDS011;35615;41.410;2.194;2023-05-14T06:50:56;2.10;;;1.90;;
49396;SDS011;35615;41.410;2.194;2023-05-14T06:53:23;4.88;;;2.20;;
49396;SDS011;35615;41.410;2.194;2023-05-14T06:55:54;2.42;;;2.22;;
49396;SDS011;35615;41.410;2.194;2023-05-14T06:58:21;4.60;;;2.50;;
49396;SDS011;35615;41.410;2.194;2023-05-14T07:00:49;2.78;;;2.13;;
49396;SDS011;35615;41.410;2.194;2023-05-14T07:03:16;2.90;;;2.53;;
49396;SDS011;35615;41.410;2.194;2023-05-14T07:05:43;4.93;;;2.00;;
49396;SDS011;35615;41.410;2.194;2023-05-14T07:08:12;5.78;;;2.15;;
49396;SDS011;35615;41.410;2.194;2023-05-14T07:10:39;6.18;;;2.42;;
49396;SDS011;35615;41.410;2.194;2023-05-14T07:13:07;5.20;;;2.35;;
49396;SDS011;35615;41.410;2.194;2023-05-14T07:15:34;3.28;;;2.40;;
49396;SDS011;35615;41.410;2.194;2023-05-14T07:18:01;2.55;;;2.15;;
49396;SDS011;35615;41.410;2.194;2023-05-14T07:20:28;4.15;;;2.90;;
49396;SDS011;35615;41.410;2.194;2023-05-14T07:22:55;3.78;;;3.17;;
49396;SDS011;35615;41.410;2.194;2023-05-14T07:25:22;6.10;;;3.33;;
49396;SDS011;35615;41.410;2.194;2023-05-14T07:27:50;5.35;;;3.42;;
49396;SDS011;35615;41.410;2.194;2023-05-14T07:30:17;4.13;;;3.42;;
49396;SDS011;35615;41.410;2.194;2023-05-14T07:32:46;5.38;;;3.20;;
49396;SDS011;35615;41.410;2.194;2023-05-14T07:35:13;4.68;;;3.20;;
49396;SDS011;35615;41.410;2.194;2023-05-14T07:37:42;4.90;;;3.05;;
49396;SDS011;35615;41.410;2.194;2023-05-14T07:40:09;7.82;;;2.92;;
49396;SDS011;35615;41.410;2.194;2023-05-14T07:42:42;4.28;;;3.30;;
49396;SDS011;35615;41.410;2.194;2023-05-14T07:45:12;4.15;;;3.10;;
49396;SDS011;35615;41.410;2.194;2023-05-14T07:47:42;4.63;;;3.22;;
49396;SDS011;35615;41.410;2.194;2023-05-14T07:50:09;5.65;;;3.10;;
49396;SDS011;35615;41.410;2.194;2023-05-14T07:52:37;4.60;;;3.33;;
49396;SDS011;35615;41.410;2.194;2023-05-14T07:55:04;7.40;;;3.10;;
49396;SDS011;35615;41.410;2.194;2023-05-14T07:57:32;6.30;;;3.60;;
49396;SDS011;35615;41.410;2.194;2023-05-14T07:59:59;4.78;;;3.33;;
49396;SDS011;35615;41.410;2.194;2023-05-14T08:02:26;6.65;;;3.13;;
49396;SDS011;35615;41.410;2.194;2023-05-14T08:04:54;5.45;;;3.33;;
49396;SDS011;35615;41.410;2.194;2023-05-14T08:07:21;5.93;;;3.53;;
49396;SDS011;35615;41.410;2.194;2023-05-14T08:09:48;4.60;;;3.10;;
49396;SDS011;35615;41.410;2.194;2023-05-14T08:12:16;4.05;;;2.95;;
49396;SDS011;35615;41.410;2.194;2023-05-14T08:14:49;3.25;;;2.80;;
49396;SDS011;35615;41.410;2.194;2023-05-14T08:17:16;3.70;;;3.10;;
49396;SDS011;35615;41.410;2.194;2023-05-14T08:19:46;4.15;;;3.08;;
49396;SDS011;35615;41.410;2.194;2023-05-14T08:22:20;3.70;;;3.08;;
49396;SDS011;35615;41.410;2.194;2023-05-14T08:24:47;9.13;;;2.80;;
49396;SDS011;35615;41.410;2.194;2023-05-14T08:27:17;3.38;;;2.72;;
49396;SDS011;35615;41.410;2.194;2023-05-14T08:29:47;3.83;;;2.90;;
49396;SDS011;35615;41.410;2.194;2023-05-14T08:32:15;4.63;;;3.13;;
49396;SDS011;35615;41.410;2.194;2023-05-14T08:34:49;5.50;;;3.40;;
49396;SDS011;35615;41.410;2.194;2023-05-14T08:37:22;3.75;;;3.00;;
49396;SDS011;35615;41.410;2.194;2023-05-14T08:39:49;9.80;;;3.65;;
49396;SDS011;35615;41.410;2.194;2023-05-14T08:42:19;6.00;;;3.38;;
49396;SDS011;35615;41.410;2.194;2023-05-14T08:44:48;8.75;;;4.07;;
49396;SDS011;35615;41.410;2.194;2023-05-14T08:47:20;4.18;;;3.30;;
49396;SDS011;35615;41.410;2.194;2023-05-14T08:49:59;5.28;;;3.30;;
49396;SDS011;35615;41.410;2.194;2023-05-14T08:52:33;3.15;;;2.42;;
49396;SDS011;35615;41.410;2.194;2023-05-14T08:55:02;4.88;;;2.13;;
49396;SDS011;35615;41.410;2.194;2023-05-14T08:57:31;2.17;;;1.60;;
49396;SDS011;35615;41.410;2.194;2023-05-14T09:00:57;5.47;;;3.45;;
49396;SDS011;35615;41.410;2.194;2023-05-14T09:03:28;2.70;;;1.95;;
49396;SDS011;35615;41.410;2.194;2023-05-14T09:05:57;4.50;;;2.70;;
49396;SDS011;35615;41.410;2.194;2023-05-14T09:08:33;4.97;;;2.55;;
49396;SDS011;35615;41.410;2.194;2023-05-14T09:11:04;11.30;;;7.38;;
49396;SDS011;35615;41.410;2.194;2023-05-14T09:13:31;3.22;;;2.92;;
49396;SDS011;35615;41.410;2.194;2023-05-14T09:16:02;4.35;;;3.47;;
49396;SDS011;35615;41.410;2.194;2023-05-14T09:18:29;10.48;;;4.88;;
49396;SDS011;35615;41.410;2.194;2023-05-14T09:20:58;3.47;;;2.42;;
49396;SDS011;35615;41.410;2.194;2023-05-14T09:23:34;5.80;;;3.80;;
49396;SDS011;35615;41.410;2.194;2023-05-14T09:26:07;3.47;;;2.73;;
49396;SDS011;35615;41.410;2.194;2023-05-14T09:28:40;5.13;;;3.40;;
49396;SDS011;35615;41.410;2.194;2023-05-14T09:31:08;5.13;;;3.38;;
49396;SDS011;35615;41.410;2.194;2023-05-14T09:33:35;6.85;;;4.13;;
49396;SDS011;35615;41.410;2.194;2023-05-14T09:36:05;8.18;;;5.22;;
49396;SDS011;35615;41.410;2.194;2023-05-14T09:38:37;11.85;;;5.32;;
49396;SDS011;35615;41.410;2.194;2023-05-14T09:41:05;4.45;;;2.65;;
49396;SDS011;35615;41.410;2.194;2023-05-14T09:43:36;3.65;;;3.10;;
49396;SDS011;35615;41.410;2.194;2023-05-14T09:46:06;4.43;;;2.92;;
49396;SDS011;35615;41.410;2.194;2023-05-14T09:48:35;5.20;;;2.97;;
49396;SDS011;35615;41.410;2.194;2023-05-14T09:51:02;4.97;;;3.13;;
49396;SDS011;35615;41.410;2.194;2023-05-14T09:53:31;7.15;;;3.38;;
49396;SDS011;35615;41.410;2.194;2023-05-14T09:56:00;7.95;;;4.57;;
49396;SDS011;35615;41.410;2.194;2023-05-14T09:58:28;5.28;;;3.72;;
49396;SDS011;35615;41.410;2.194;2023-05-14T10:00:56;10.77;;;4.32;;
49396;SDS011;35615;41.410;2.194;2023-05-14T10:03:25;6.00;;;4.35;;
49396;SDS011;35615;41.410;2.194;2023-05-14T10:06:00;6.85;;;4.88;;
49396;SDS011;35615;41.410;2.194;2023-05-14T10:08:35;8.05;;;5.10;;
49396;SDS011;35615;41.410;2.194;2023-05-14T10:11:07;6.10;;;4.68;;
49396;SDS011;35615;41.410;2.194;2023-05-14T10:13:41;8.55;;;5.78;;
49396;SDS011;35615;41.410;2.194;2023-05-14T10:16:21;10.85;;;6.85;;
49396;SDS011;35615;41.410;2.194;2023-05-14T10:19:07;20.23;;;7.88;;
49396;SDS011;35615;41.410;2.194;2023-05-14T10:21:39;6.38;;;4.05;;
49396;SDS011;35615;41.410;2.194;2023-05-14T10:24:07;5.97;;;3.90;;
49396;SDS011;35615;41.410;2.194;2023-05-14T10:26:39;6.38;;;3.33;;
49396;SDS011;35615;41.410;2.194;2023-05-14T10:29:11;4.25;;;3.30;;
49396;SDS011;35615;41.410;2.194;2023-05-14T10:31:49;4.63;;;3.67;;
49396;SDS011;35615;41.410;2.194;2023-05-14T10:34:38;5.03;;;3.83;;
49396;SDS011;35615;41.410;2.194;2023-05-14T10:37:18;9.77;;;3.97;;
49396;SDS011;35615;41.410;2.194;2023-05-14T10:40:07;4.55;;;3.70;;
49396;SDS011;35615;41.410;2.194;2023-05-14T10:42:44;7.43;;;4.28;;
49396;SDS011;35615;41.410;2.194;2023-05-14T10:45:13;4.90;;;3.80;;
49396;SDS011;35615;41.410;2.194;2023-05-14T10:47:46;4.72;;;3.60;;
49396;SDS011;35615;41.410;2.194;2023-05-14T10:50:14;6.03;;;3.65;;
49396;SDS011;35615;41.410;2.194;2023-05-14T10:52:43;4.47;;;2.85;;
49396;SDS011;35615;41.410;2.194;2023-05-14T10:55:12;5.38;;;3.15;;
49396;SDS011;35615;41.410;2.194;2023-05-14T10:57:45;4.95;;;3.20;;
49396;SDS011;35615;41.410;2.194;2023-05-14T11:00:15;4.00;;;2.88;;
49396;SDS011;35615;41.410;2.194;2023-05-14T11:02:43;5.25;;;2.78;;
49396;SDS011;35615;41.410;2.194;2023-05-14T11:05:13;3.60;;;2.63;;
49396;SDS011;35615;41.410;2.194;2023-05-14T11:07:46;4.72;;;2.80;;
49396;SDS011;35615;41.410;2.194;2023-05-14T11:10:18;5.32;;;3.00;;
49396;SDS011;35615;41.410;2.194;2023-05-14T11:15:22;7.45;;;3.30;;
49396;SDS011;35615;41.410;2.194;2023-05-14T11:17:54;10.18;;;3.10;;
49396;SDS011;35615;41.410;2.194;2023-05-14T11:20:24;3.63;;;2.70;;
49396;SDS011;35615;41.410;2.194;2023-05-14T11:22:53;5.00;;;2.92;;
49396;SDS011;35615;41.410;2.194;2023-05-14T11:25:26;5.93;;;3.50;;
49396;SDS011;35615;41.410;2.194;2023-05-14T11:27:57;6.03;;;3.85;;
49396;SDS011;35615;41.410;2.194;2023-05-14T11:30:26;3.47;;;3.03;;
49396;SDS011;35615;41.410;2.194;2023-05-14T11:32:56;3.97;;;2.35;;
49396;SDS011;35615;41.410;2.194;2023-05-14T11:35:30;3.25;;;2.33;;
49396;SDS011;35615;41.410;2.194;2023-05-14T11:37:59;5.63;;;2.30;;
49396;SDS011;35615;41.410;2.194;2023-05-14T11:40:26;1.88;;;1.55;;
49396;SDS011;35615;41.410;2.194;2023-05-14T11:43:06;2.45;;;1.27;;
49396;SDS011;35615;41.410;2.194;2023-05-14T11:45:34;2.25;;;1.60;;
49396;SDS011;35615;41.410;2.194;2023-05-14T11:48:10;6.05;;;2.10;;
49396;SDS011;35615;41.410;2.194;2023-05-14T11:50:47;4.50;;;2.20;;
49396;SDS011;35615;41.410;2.194;2023-05-14T11:53:28;2.75;;;2.00;;
49396;SDS011;35615;41.410;2.194;2023-05-14T11:55:58;4.35;;;1.63;;
49396;SDS011;35615;41.410;2.194;2023-05-14T11:58:25;3.70;;;1.45;;
49396;SDS011;35615;41.410;2.194;2023-05-14T12:00:58;3.83;;;2.05;;
49396;SDS011;35615;41.410;2.194;2023-05-14T12:03:25;4.20;;;1.92;;
49396;SDS011;35615;41.410;2.194;2023-05-14T12:05:59;3.77;;;2.40;;
49396;SDS011;35615;41.410;2.194;2023-05-14T12:08:28;5.70;;;2.40;;
49396;SDS011;35615;41.410;2.194;2023-05-14T12:11:02;2.40;;;2.20;;
49396;SDS011;35615;41.410;2.194;2023-05-14T12:13:33;3.20;;;2.17;;
49396;SDS011;35615;41.410;2.194;2023-05-14T12:16:06;2.87;;;2.23;;
49396;SDS011;35615;41.410;2.194;2023-05-14T12:18:35;6.47;;;2.92;;
49396;SDS011;35615;41.410;2.194;2023-05-14T12:21:03;3.53;;;2.25;;
49396;SDS011;35615;41.410;2.194;2023-05-14T12:23:34;2.20;;;2.00;;
49396;SDS011;35615;41.410;2.194;2023-05-14T12:26:02;4.20;;;2.30;;
49396;SDS011;35615;41.410;2.194;2023-05-14T12:28:37;3.30;;;1.70;;
49396;SDS011;35615;41.410;2.194;2023-05-14T12:31:09;5.72;;;1.88;;
49396;SDS011;35615;41.410;2.194;2023-05-14T12:33:37;3.13;;;1.90;;
49396;SDS011;35615;41.410;2.194;2023-05-14T12:36:11;7.45;;;2.50;;
49396;SDS011;35615;41.410;2.194;2023-05-14T12:38:55;5.80;;;4.13;;
49396;SDS011;35615;41.410;2.194;2023-05-14T12:41:24;5.05;;;2.50;;
49396;SDS011;35615;41.410;2.194;2023-05-14T12:43:58;8.07;;;2.10;;
49396;SDS011;35615;41.410;2.194;2023-05-14T12:46:27;5.15;;;2.65;;
49396;SDS011;35615;41.410;2.194;2023-05-14T12:48:54;12.90;;;2.30;;
49396;SDS011;35615;41.410;2.194;2023-05-14T12:51:25;3.60;;;1.77;;
49396;SDS011;35615;41.410;2.194;2023-05-14T12:54:01;4.25;;;2.30;;
49396;SDS011;35615;41.410;2.194;2023-05-14T12:56:30;2.13;;;1.70;;
49396;SDS011;35615;41.410;2.194;2023-05-14T12:59:04;7.97;;;2.38;;
49396;SDS011;35615;41.410;2.194;2023-05-14T13:01:35;5.15;;;1.60;;
49396;SDS011;35615;41.410;2.194;2023-05-14T13:04:04;3.47;;;1.85;;
49396;SDS011;35615;41.410;2.194;2023-05-14T13:06:32;2.75;;;1.85;;
49396;SDS011;35615;41.410;2.194;2023-05-14T13:09:00;3.65;;;2.00;;
49396;SDS011;35615;41.410;2.194;2023-05-14T13:11:29;1.35;;;1.25;;
49396;SDS011;35615;41.410;2.194;2023-05-14T13:14:02;4.47;;;1.40;;
49396;SDS011;35615;41.410;2.194;2023-05-14T13:16:37;2.00;;;1.43;;
49396;SDS011;35615;41.410;2.194;2023-05-14T13:19:04;2.78;;;2.30;;
49396;SDS011;35615;41.410;2.194;2023-05-14T13:21:37;7.00;;;2.83;;
49396;SDS011;35615;41.410;2.194;2023-05-14T13:24:05;7.60;;;3.13;;
49396;SDS011;35615;41.410;2.194;2023-05-14T13:26:37;7.68;;;2.35;;
49396;SDS011;35615;41.410;2.194;2023-05-14T13:29:07;2.78;;;1.88;;
49396;SDS011;35615;41.410;2.194;2023-05-14T13:31:40;4.78;;;2.05;;
49396;SDS011;35615;41.410;2.194;2023-05-14T13:34:18;4.30;;;2.05;;
49396;SDS011;35615;41.410;2.194;2023-05-14T13:36:51;8.80;;;2.60;;
49396;SDS011;35615;41.410;2.194;2023-05-14T13:39:19;14.82;;;3.08;;
49396;SDS011;35615;41.410;2.194;2023-05-14T13:41:55;12.02;;;3.22;;
49396;SDS011;35615;41.410;2.194;2023-05-14T13:44:33;12.98;;;4.40;;
49396;SDS011;35615;41.410;2.194;2023-05-14T13:47:01;5.38;;;3.65;;
49396;SDS011;35615;41.410;2.194;2023-05-14T13:49:32;4.93;;;2.78;;
49396;SDS011;35615;41.410;2.194;2023-05-14T13:52:01;5.47;;;3.30;;
49396;SDS011;35615;41.410;2.194;2023-05-14T13:54:39;6.22;;;3.22;;
49396;SDS011;35615;41.410;2.194;2023-05-14T13:57:13;7.47;;;3.08;;
49396;SDS011;35615;41.410;2.194;2023-05-14T13:59:48;4.15;;;2.70;;
49396;SDS011;35615;41.410;2.194;2023-05-14T14:02:22;9.48;;;3.30;;
49396;SDS011;35615;41.410;2.194;2023-05-14T14:04:58;11.15;;;4.72;;
49396;SDS011;35615;41.410;2.194;2023-05-14T14:10:15;9.43;;;3.60;;
49396;SDS011;35615;41.410;2.194;2023-05-14T14:12:47;9.02;;;4.25;;
49396;SDS011;35615;41.410;2.194;2023-05-14T14:15:20;5.07;;;3.80;;
49396;SDS011;35615;41.410;2.194;2023-05-14T14:18:00;6.97;;;3.78;;
49396;SDS011;35615;41.410;2.194;2023-05-14T14:20:31;7.22;;;4.50;;
49396;SDS011;35615;41.410;2.194;2023-05-14T14:23:07;6.72;;;4.35;;
49396;SDS011;35615;41.410;2.194;2023-05-14T14:25:45;9.63;;;4.25;;
49396;SDS011;35615;41.410;2.194;2023-05-14T14:28:24;5.63;;;3.20;;
49396;SDS011;35615;41.410;2.194;2023-05-14T14:31:12;7.93;;;2.50;;
49396;SDS011;35615;41.410;2.194;2023-05-14T14:38:59;4.50;;;2.45;;
49396;SDS011;35615;41.410;2.194;2023-05-14T14:41:44;6.40;;;2.88;;
49396;SDS011;35615;41.410;2.194;2023-05-14T14:44:30;3.33;;;2.40;;
49396;SDS011;35615;41.410;2.194;2023-05-14T14:47:20;6.35;;;2.97;;
49396;SDS011;35615;41.410;2.194;2023-05-14T14:49:54;4.20;;;2.47;;
49396;SDS011;35615;41.410;2.194;2023-05-14T14:55:14;6.20;;;2.85;;
49396;SDS011;35615;41.410;2.194;2023-05-14T14:57:42;5.45;;;2.70;;
49396;SDS011;35615;41.410;2.194;2023-05-14T15:00:14;5.05;;;3.10;;
49396;SDS011;35615;41.410;2.194;2023-05-14T15:02:53;10.20;;;2.80;;
49396;SDS011;35615;41.410;2.194;2023-05-14T15:05:22;8.63;;;2.90;;
49396;SDS011;35615;41.410;2.194;2023-05-14T15:07:58;9.20;;;2.55;;
49396;SDS011;35615;41.410;2.194;2023-05-14T15:10:26;9.95;;;2.40;;
49396;SDS011;35615;41.410;2.194;2023-05-14T15:12:57;5.72;;;2.60;;
49396;SDS011;35615;41.410;2.194;2023-05-14T15:15:27;9.90;;;2.47;;
49396;SDS011;35615;41.410;2.194;2023-05-14T15:17:57;9.13;;;3.40;;
49396;SDS011;35615;41.410;2.194;2023-05-14T15:20:27;8.07;;;2.40;;
49396;SDS011;35615;41.410;2.194;2023-05-14T15:22:54;12.63;;;2.72;;
49396;SDS011;35615;41.410;2.194;2023-05-14T15:25:25;5.80;;;1.90;;
49396;SDS011;35615;41.410;2.194;2023-05-14T15:27:54;5.85;;;2.97;;
49396;SDS011;35615;41.410;2.194;2023-05-14T15:30:25;7.07;;;2.30;;